SWR457 RCTP-VHHH
Flight info
| Callsign | SWR457 |
|---|---|
| Flight time | 1h 24m |
| Altitude | 38000 |
| Route | CHALI1A CHALI T3 MKG A1 ELATO V522 ABBEY |
| Aircraft | B77W/H-SDE1E2E3FGHIJ2J3J4J5M1RWXY/LB1D1 |
Departure
| Time | 2026-05-05 19:11 |
|---|---|
| Airport | Taiwan Taoyuan International Airport (RCTP) |
Arrival
| Time | 2026-05-05 20:36 |
|---|---|
| Airport | Hong Kong International Airport (VHHH) |
| Time | Latitude | Longitude | Altitude | Speed | Heading |
|---|---|---|---|---|---|
| 2026-05-05 18:52 | 25.08136 | 121.23336 | 106 ft | 0 kts | 139° |
| 2026-05-05 19:01 | 25.08138 | 121.23334 | 107 ft | 3 kts | 139° |
| 2026-05-05 19:01 | 25.08158 | 121.23315 | 105 ft | 4 kts | 139° |
| 2026-05-05 19:01 | 25.08179 | 121.23296 | 106 ft | 4 kts | 149° |
| 2026-05-05 19:02 | 25.08203 | 121.23286 | 105 ft | 4 kts | 175° |
| 2026-05-05 19:02 | 25.08229 | 121.23289 | 105 ft | 4 kts | 210° |
| 2026-05-05 19:02 | 25.08240 | 121.23298 | 104 ft | 0 kts | 230° |
| 2026-05-05 19:04 | 25.08239 | 121.23297 | 104 ft | 1 kts | 230° |
| 2026-05-05 19:04 | 25.08220 | 121.23272 | 106 ft | 9 kts | 230° |
| 2026-05-05 19:05 | 25.08164 | 121.23199 | 108 ft | 14 kts | 230° |
| 2026-05-05 19:05 | 25.08100 | 121.23117 | 108 ft | 14 kts | 230° |
| 2026-05-05 19:05 | 25.08037 | 121.23034 | 108 ft | 14 kts | 230° |
| 2026-05-05 19:05 | 25.07972 | 121.22952 | 107 ft | 14 kts | 228° |
| 2026-05-05 19:06 | 25.07907 | 121.22873 | 108 ft | 14 kts | 227° |
| 2026-05-05 19:06 | 25.07844 | 121.22791 | 107 ft | 14 kts | 231° |
| 2026-05-05 19:06 | 25.07782 | 121.22708 | 108 ft | 14 kts | 230° |
| 2026-05-05 19:06 | 25.07714 | 121.22623 | 109 ft | 16 kts | 228° |
| 2026-05-05 19:07 | 25.07633 | 121.22520 | 108 ft | 20 kts | 229° |
| 2026-05-05 19:07 | 25.07534 | 121.22392 | 108 ft | 23 kts | 229° |
| 2026-05-05 19:07 | 25.07421 | 121.22248 | 108 ft | 27 kts | 229° |
| 2026-05-05 19:07 | 25.07309 | 121.22108 | 108 ft | 21 kts | 227° |
| 2026-05-05 19:08 | 25.07181 | 121.22110 | 108 ft | 22 kts | 142° |
| 2026-05-05 19:08 | 25.07057 | 121.22227 | 108 ft | 25 kts | 139° |
| 2026-05-05 19:08 | 25.06919 | 121.22356 | 109 ft | 27 kts | 140° |
| 2026-05-05 19:08 | 25.06770 | 121.22496 | 107 ft | 29 kts | 140° |
| 2026-05-05 19:09 | 25.06635 | 121.22578 | 106 ft | 19 kts | 198° |
| 2026-05-05 19:09 | 25.06548 | 121.22473 | 108 ft | 19 kts | 229° |
| 2026-05-05 19:09 | 25.06461 | 121.22364 | 107 ft | 19 kts | 228° |
| 2026-05-05 19:09 | 25.06368 | 121.22267 | 108 ft | 19 kts | 201° |
| 2026-05-05 19:10 | 25.06246 | 121.22248 | 105 ft | 15 kts | 180° |
| 2026-05-05 19:10 | 25.06158 | 121.22300 | 105 ft | 15 kts | 136° |
| 2026-05-05 19:10 | 25.06122 | 121.22402 | 103 ft | 16 kts | 68° |
| 2026-05-05 19:10 | 25.06141 | 121.22429 | 103 ft | 2 kts | 47° |
| 2026-05-05 19:11 | 25.06201 | 121.22502 | 103 ft | 48 kts | 48° |
| 2026-05-05 19:11 | 25.06705 | 121.23144 | 103 ft | 171 kts | 49° |
| 2026-05-05 19:11 | 25.07633 | 121.24286 | 1076 ft | 206 kts | 47° |
| 2026-05-05 19:11 | 25.08621 | 121.25501 | 2289 ft | 218 kts | 49° |
| 2026-05-05 19:12 | 25.09647 | 121.26850 | 2586 ft | 248 kts | 50° |
| 2026-05-05 19:12 | 25.10817 | 121.28393 | 3088 ft | 268 kts | 50° |
| 2026-05-05 19:12 | 25.12044 | 121.29963 | 3839 ft | 276 kts | 41° |
| 2026-05-05 19:12 | 25.13755 | 121.30952 | 4540 ft | 278 kts | 4° |
| 2026-05-05 19:13 | 25.15637 | 121.30745 | 5543 ft | 271 kts | 336° |
| 2026-05-05 19:13 | 25.17228 | 121.29726 | 6469 ft | 266 kts | 315° |
| 2026-05-05 19:13 | 25.18453 | 121.28189 | 7281 ft | 265 kts | 304° |
| 2026-05-05 19:13 | 25.19572 | 121.26577 | 8158 ft | 267 kts | 304° |
| 2026-05-05 19:14 | 25.20699 | 121.24940 | 9144 ft | 266 kts | 303° |
| 2026-05-05 19:14 | 25.21811 | 121.23330 | 10128 ft | 265 kts | 303° |
| 2026-05-05 19:14 | 25.22944 | 121.21696 | 10757 ft | 278 kts | 303° |
| 2026-05-05 19:14 | 25.24190 | 121.19905 | 10970 ft | 308 kts | 303° |
| 2026-05-05 19:15 | 25.25570 | 121.17930 | 11181 ft | 337 kts | 303° |
| 2026-05-05 19:15 | 25.26780 | 121.15664 | 11470 ft | 348 kts | 286° |
| 2026-05-05 19:15 | 25.27132 | 121.13019 | 12263 ft | 353 kts | 266° |
| 2026-05-05 19:15 | 25.26664 | 121.10357 | 13301 ft | 356 kts | 251° |
| 2026-05-05 19:16 | 25.25499 | 121.07978 | 14224 ft | 357 kts | 232° |
| 2026-05-05 19:16 | 25.23812 | 121.05908 | 14936 ft | 365 kts | 229° |
| 2026-05-05 19:16 | 25.22101 | 121.03831 | 15736 ft | 370 kts | 230° |
| 2026-05-05 19:16 | 25.20402 | 121.01715 | 16702 ft | 371 kts | 229° |
| 2026-05-05 19:17 | 25.18585 | 120.99651 | 17622 ft | 375 kts | 225° |
| 2026-05-05 19:17 | 25.16670 | 120.97665 | 18459 ft | 380 kts | 225° |
| 2026-05-05 19:17 | 25.14732 | 120.95646 | 19176 ft | 384 kts | 225° |
| 2026-05-05 19:17 | 25.12814 | 120.93616 | 19933 ft | 387 kts | 226° |
| 2026-05-05 19:18 | 25.10856 | 120.91516 | 20538 ft | 395 kts | 227° |
| 2026-05-05 19:18 | 25.08859 | 120.89359 | 21135 ft | 402 kts | 227° |
| 2026-05-05 19:18 | 25.06869 | 120.87206 | 21792 ft | 407 kts | 227° |
| 2026-05-05 19:18 | 25.04828 | 120.85000 | 22526 ft | 410 kts | 227° |
| 2026-05-05 19:19 | 25.02789 | 120.82798 | 23200 ft | 414 kts | 228° |
| 2026-05-05 19:19 | 25.00712 | 120.80558 | 23795 ft | 419 kts | 228° |
| 2026-05-05 19:19 | 24.98620 | 120.78303 | 24331 ft | 422 kts | 228° |
| 2026-05-05 19:19 | 24.96514 | 120.76035 | 24902 ft | 425 kts | 228° |
| 2026-05-05 19:20 | 24.94385 | 120.73745 | 25479 ft | 428 kts | 228° |
| 2026-05-05 19:20 | 24.92245 | 120.71445 | 26045 ft | 431 kts | 228° |
| 2026-05-05 19:20 | 24.90105 | 120.69145 | 26587 ft | 434 kts | 228° |
| 2026-05-05 19:20 | 24.87921 | 120.66798 | 27134 ft | 437 kts | 228° |
| 2026-05-05 19:21 | 24.85756 | 120.64473 | 27665 ft | 440 kts | 228° |
| 2026-05-05 19:21 | 24.83567 | 120.62124 | 28163 ft | 443 kts | 228° |
| 2026-05-05 19:21 | 24.81328 | 120.59723 | 28649 ft | 446 kts | 228° |
| 2026-05-05 19:21 | 24.79112 | 120.57346 | 29109 ft | 449 kts | 228° |
| 2026-05-05 19:22 | 24.76850 | 120.54923 | 29565 ft | 452 kts | 228° |
| 2026-05-05 19:22 | 24.74619 | 120.52533 | 29991 ft | 454 kts | 229° |
| 2026-05-05 19:22 | 24.72300 | 120.50137 | 30453 ft | 456 kts | 224° |
| 2026-05-05 19:22 | 24.69768 | 120.48066 | 30947 ft | 458 kts | 219° |
| 2026-05-05 19:23 | 24.67089 | 120.46106 | 31281 ft | 461 kts | 218° |
| 2026-05-05 19:23 | 24.64422 | 120.44187 | 31638 ft | 463 kts | 219° |
| 2026-05-05 19:23 | 24.61720 | 120.42221 | 32137 ft | 461 kts | 219° |
| 2026-05-05 19:23 | 24.59086 | 120.40268 | 32672 ft | 458 kts | 220° |
| 2026-05-05 19:24 | 24.56452 | 120.38288 | 33163 ft | 456 kts | 220° |
| 2026-05-05 19:24 | 24.53863 | 120.36327 | 33593 ft | 456 kts | 220° |
| 2026-05-05 19:24 | 24.51234 | 120.34334 | 34028 ft | 456 kts | 220° |
| 2026-05-05 19:24 | 24.48647 | 120.32378 | 34404 ft | 455 kts | 220° |
| 2026-05-05 19:25 | 24.46029 | 120.30401 | 34782 ft | 454 kts | 220° |
| 2026-05-05 19:25 | 24.43431 | 120.28425 | 35064 ft | 454 kts | 221° |
| 2026-05-05 19:25 | 24.40869 | 120.26444 | 35373 ft | 454 kts | 221° |
| 2026-05-05 19:25 | 24.38265 | 120.24419 | 35752 ft | 453 kts | 221° |
| 2026-05-05 19:26 | 24.35708 | 120.22430 | 36146 ft | 451 kts | 221° |
| 2026-05-05 19:26 | 24.33174 | 120.20463 | 36501 ft | 450 kts | 221° |
| 2026-05-05 19:26 | 24.30599 | 120.18467 | 36842 ft | 450 kts | 221° |
| 2026-05-05 19:26 | 24.28057 | 120.16500 | 37178 ft | 449 kts | 221° |
| 2026-05-05 19:27 | 24.25517 | 120.14536 | 37511 ft | 448 kts | 221° |
| 2026-05-05 19:27 | 24.22959 | 120.12560 | 37836 ft | 448 kts | 221° |
| 2026-05-05 19:27 | 24.17826 | 120.08593 | 37926 ft | 454 kts | 222° |
| 2026-05-05 19:28 | 24.12652 | 120.04603 | 37961 ft | 452 kts | 222° |
| 2026-05-05 19:28 | 24.07548 | 120.00654 | 37964 ft | 447 kts | 222° |
| 2026-05-05 19:29 | 24.02490 | 119.96740 | 37965 ft | 446 kts | 222° |
| 2026-05-05 19:29 | 23.97417 | 119.92825 | 37931 ft | 446 kts | 222° |
| 2026-05-05 19:30 | 23.92369 | 119.88937 | 37964 ft | 446 kts | 222° |
| 2026-05-05 19:30 | 23.87289 | 119.85028 | 37973 ft | 447 kts | 222° |
| 2026-05-05 19:31 | 23.82188 | 119.81104 | 37974 ft | 449 kts | 222° |
| 2026-05-05 19:31 | 23.77063 | 119.77166 | 37976 ft | 452 kts | 222° |
| 2026-05-05 19:32 | 23.71924 | 119.73221 | 37963 ft | 453 kts | 222° |
| 2026-05-05 19:32 | 23.66746 | 119.69251 | 37968 ft | 455 kts | 222° |
| 2026-05-05 19:33 | 23.62415 | 119.65797 | 37974 ft | 450 kts | 227° |
| 2026-05-05 19:33 | 23.58130 | 119.60954 | 37973 ft | 442 kts | 236° |
| 2026-05-05 19:34 | 23.54655 | 119.55499 | 37976 ft | 437 kts | 243° |
| 2026-05-05 19:35 | 23.50358 | 119.47982 | 37957 ft | 437 kts | 243° |
| 2026-05-05 19:35 | 23.47138 | 119.42388 | 37967 ft | 438 kts | 243° |
| 2026-05-05 19:36 | 23.43884 | 119.36774 | 37977 ft | 439 kts | 243° |
| 2026-05-05 19:36 | 23.40611 | 119.31148 | 37972 ft | 440 kts | 243° |
| 2026-05-05 19:37 | 23.37331 | 119.25516 | 37964 ft | 440 kts | 243° |
| 2026-05-05 19:37 | 23.34046 | 119.19882 | 37969 ft | 441 kts | 243° |
| 2026-05-05 19:38 | 23.30757 | 119.14245 | 37942 ft | 441 kts | 243° |
| 2026-05-05 19:38 | 23.27466 | 119.08611 | 37951 ft | 441 kts | 243° |
| 2026-05-05 19:39 | 23.24174 | 119.02981 | 37958 ft | 441 kts | 243° |
| 2026-05-05 19:39 | 23.20885 | 118.97363 | 37958 ft | 441 kts | 242° |
| 2026-05-05 19:40 | 23.17601 | 118.91760 | 37952 ft | 442 kts | 243° |
| 2026-05-05 19:40 | 23.14283 | 118.86104 | 37963 ft | 442 kts | 243° |
| 2026-05-05 19:41 | 23.11000 | 118.80514 | 37957 ft | 442 kts | 243° |
| 2026-05-05 19:41 | 23.07681 | 118.74871 | 37966 ft | 442 kts | 242° |
| 2026-05-05 19:42 | 23.04373 | 118.69251 | 37953 ft | 442 kts | 242° |
| 2026-05-05 19:42 | 23.01067 | 118.63638 | 37944 ft | 443 kts | 243° |
| 2026-05-05 19:43 | 22.97748 | 118.58010 | 37966 ft | 443 kts | 243° |
| 2026-05-05 19:43 | 22.94405 | 118.52353 | 37967 ft | 443 kts | 243° |
| 2026-05-05 19:44 | 22.91063 | 118.46732 | 37965 ft | 443 kts | 242° |
| 2026-05-05 19:44 | 22.87725 | 118.41126 | 37932 ft | 443 kts | 242° |
| 2026-05-05 19:45 | 22.84390 | 118.35528 | 37945 ft | 443 kts | 242° |
| 2026-05-05 19:45 | 22.81040 | 118.29906 | 37953 ft | 444 kts | 242° |
| 2026-05-05 19:46 | 22.77683 | 118.24279 | 37956 ft | 445 kts | 242° |
| 2026-05-05 19:46 | 22.74322 | 118.18652 | 37956 ft | 445 kts | 242° |
| 2026-05-05 19:47 | 22.70951 | 118.13013 | 37953 ft | 445 kts | 242° |
| 2026-05-05 19:47 | 22.67586 | 118.07391 | 37953 ft | 445 kts | 242° |
| 2026-05-05 19:48 | 22.64216 | 118.01765 | 37955 ft | 446 kts | 242° |
| 2026-05-05 19:48 | 22.60850 | 117.96152 | 37951 ft | 446 kts | 242° |
| 2026-05-05 19:49 | 22.57486 | 117.90521 | 37952 ft | 446 kts | 243° |
| 2026-05-05 19:49 | 22.54116 | 117.84853 | 37953 ft | 446 kts | 243° |
| 2026-05-05 19:50 | 22.50756 | 117.79208 | 37952 ft | 446 kts | 243° |
| 2026-05-05 19:50 | 22.47407 | 117.73592 | 37958 ft | 446 kts | 243° |
| 2026-05-05 19:51 | 22.44037 | 117.67948 | 37936 ft | 446 kts | 242° |
| 2026-05-05 19:51 | 22.40678 | 117.62326 | 37951 ft | 446 kts | 242° |
| 2026-05-05 19:52 | 22.37312 | 117.56699 | 37958 ft | 447 kts | 242° |
| 2026-05-05 19:52 | 22.34471 | 117.50825 | 37957 ft | 437 kts | 256° |
| 2026-05-05 19:53 | 22.33142 | 117.44445 | 37953 ft | 432 kts | 269° |
| 2026-05-05 19:53 | 22.32994 | 117.37970 | 37954 ft | 432 kts | 271° |
| 2026-05-05 19:54 | 22.32936 | 117.31488 | 37961 ft | 433 kts | 271° |
| 2026-05-05 19:54 | 22.32849 | 117.24993 | 37960 ft | 435 kts | 271° |
| 2026-05-05 19:55 | 22.32734 | 117.18427 | 37957 ft | 435 kts | 271° |
| 2026-05-05 19:55 | 22.32609 | 117.11932 | 37956 ft | 436 kts | 271° |
| 2026-05-05 19:56 | 22.32480 | 117.05368 | 37957 ft | 436 kts | 271° |
| 2026-05-05 19:56 | 22.32349 | 116.98810 | 37959 ft | 436 kts | 271° |
| 2026-05-05 19:57 | 22.32217 | 116.92302 | 37959 ft | 435 kts | 271° |
| 2026-05-05 19:57 | 22.32082 | 116.85794 | 37951 ft | 435 kts | 271° |
| 2026-05-05 19:58 | 22.31944 | 116.79234 | 37939 ft | 434 kts | 271° |
| 2026-05-05 19:58 | 22.31804 | 116.72737 | 37954 ft | 435 kts | 271° |
| 2026-05-05 19:59 | 22.31661 | 116.66191 | 37958 ft | 435 kts | 271° |
| 2026-05-05 19:59 | 22.31516 | 116.59676 | 37958 ft | 436 kts | 271° |
| 2026-05-05 20:00 | 22.31367 | 116.53112 | 37956 ft | 436 kts | 271° |
| 2026-05-05 20:00 | 22.31216 | 116.46561 | 37968 ft | 437 kts | 271° |
| 2026-05-05 20:01 | 22.31062 | 116.40010 | 37967 ft | 437 kts | 271° |
| 2026-05-05 20:01 | 22.30906 | 116.33468 | 37957 ft | 438 kts | 271° |
| 2026-05-05 20:02 | 22.30747 | 116.26898 | 37963 ft | 438 kts | 271° |
| 2026-05-05 20:02 | 22.30584 | 116.20311 | 37965 ft | 438 kts | 271° |
| 2026-05-05 20:03 | 22.30420 | 116.13759 | 37969 ft | 438 kts | 271° |
| 2026-05-05 20:03 | 22.30336 | 116.10446 | 37573 ft | 444 kts | 271° |
| 2026-05-05 20:03 | 22.30252 | 116.07157 | 36884 ft | 439 kts | 271° |
| 2026-05-05 20:03 | 22.30167 | 116.03863 | 36162 ft | 438 kts | 270° |
| 2026-05-05 20:04 | 22.30080 | 116.00559 | 35407 ft | 438 kts | 270° |
| 2026-05-05 20:04 | 22.29995 | 115.97295 | 34579 ft | 440 kts | 270° |
| 2026-05-05 20:04 | 22.29908 | 115.93963 | 33682 ft | 442 kts | 270° |
| 2026-05-05 20:04 | 22.29820 | 115.90659 | 32716 ft | 444 kts | 270° |
| 2026-05-05 20:05 | 22.29729 | 115.87288 | 31776 ft | 446 kts | 271° |
| 2026-05-05 20:05 | 22.29640 | 115.83982 | 31077 ft | 445 kts | 271° |
| 2026-05-05 20:05 | 22.29552 | 115.80635 | 30377 ft | 443 kts | 271° |
| 2026-05-05 20:05 | 22.29479 | 115.77312 | 29655 ft | 441 kts | 271° |
| 2026-05-05 20:06 | 22.29410 | 115.73994 | 28934 ft | 438 kts | 271° |
| 2026-05-05 20:06 | 22.29339 | 115.70743 | 28268 ft | 434 kts | 271° |
| 2026-05-05 20:06 | 22.29264 | 115.67493 | 27622 ft | 431 kts | 271° |
| 2026-05-05 20:06 | 22.29178 | 115.64268 | 26992 ft | 428 kts | 270° |
| 2026-05-05 20:07 | 22.29087 | 115.61060 | 26363 ft | 425 kts | 270° |
| 2026-05-05 20:07 | 22.28996 | 115.57904 | 25759 ft | 423 kts | 270° |
| 2026-05-05 20:07 | 22.28906 | 115.54756 | 25147 ft | 421 kts | 270° |
| 2026-05-05 20:07 | 22.28815 | 115.51589 | 24525 ft | 420 kts | 270° |
| 2026-05-05 20:08 | 22.28725 | 115.48428 | 23909 ft | 419 kts | 269° |
| 2026-05-05 20:08 | 22.28637 | 115.45315 | 23270 ft | 419 kts | 269° |
| 2026-05-05 20:08 | 22.28546 | 115.42165 | 22586 ft | 417 kts | 269° |
| 2026-05-05 20:08 | 22.28457 | 115.39068 | 21972 ft | 414 kts | 269° |
| 2026-05-05 20:09 | 22.28366 | 115.35957 | 21373 ft | 411 kts | 269° |
| 2026-05-05 20:09 | 22.28276 | 115.32903 | 20789 ft | 408 kts | 269° |
| 2026-05-05 20:09 | 22.28184 | 115.29844 | 20202 ft | 405 kts | 269° |
| 2026-05-05 20:09 | 22.28090 | 115.26809 | 19622 ft | 402 kts | 269° |
| 2026-05-05 20:10 | 22.27997 | 115.23788 | 19034 ft | 400 kts | 269° |
| 2026-05-05 20:10 | 22.27905 | 115.20823 | 18463 ft | 398 kts | 268° |
| 2026-05-05 20:10 | 22.27812 | 115.17834 | 17830 ft | 396 kts | 268° |
| 2026-05-05 20:10 | 22.27720 | 115.14902 | 17232 ft | 392 kts | 268° |
| 2026-05-05 20:11 | 22.27628 | 115.11955 | 16648 ft | 389 kts | 268° |
| 2026-05-05 20:11 | 22.27537 | 115.09072 | 16095 ft | 385 kts | 268° |
| 2026-05-05 20:11 | 22.27445 | 115.06182 | 15539 ft | 382 kts | 268° |
| 2026-05-05 20:11 | 22.27354 | 115.03349 | 14990 ft | 378 kts | 268° |
| 2026-05-05 20:12 | 22.27263 | 115.00505 | 14419 ft | 376 kts | 267° |
| 2026-05-05 20:12 | 22.27172 | 114.97682 | 13873 ft | 374 kts | 267° |
| 2026-05-05 20:12 | 22.27082 | 114.94915 | 13278 ft | 371 kts | 267° |
| 2026-05-05 20:12 | 22.26991 | 114.92120 | 12703 ft | 368 kts | 267° |
| 2026-05-05 20:13 | 22.26897 | 114.89399 | 12158 ft | 365 kts | 267° |
| 2026-05-05 20:13 | 22.26801 | 114.86663 | 11615 ft | 362 kts | 267° |
| 2026-05-05 20:13 | 22.26706 | 114.83956 | 11307 ft | 353 kts | 267° |
| 2026-05-05 20:13 | 22.26615 | 114.81373 | 11139 ft | 340 kts | 267° |
| 2026-05-05 20:14 | 22.26243 | 114.78961 | 10977 ft | 322 kts | 250° |
| 2026-05-05 20:14 | 22.25198 | 114.76862 | 10842 ft | 313 kts | 234° |
| 2026-05-05 20:14 | 22.23726 | 114.75137 | 10692 ft | 311 kts | 225° |
| 2026-05-05 20:14 | 22.22150 | 114.73533 | 10578 ft | 316 kts | 225° |
| 2026-05-05 20:15 | 22.20556 | 114.71931 | 10406 ft | 308 kts | 225° |
| 2026-05-05 20:15 | 22.19021 | 114.70385 | 10251 ft | 299 kts | 225° |
| 2026-05-05 20:15 | 22.17510 | 114.68854 | 10113 ft | 290 kts | 225° |
| 2026-05-05 20:15 | 22.16085 | 114.67403 | 9987 ft | 281 kts | 225° |
| 2026-05-05 20:16 | 22.14682 | 114.65969 | 9858 ft | 273 kts | 225° |
| 2026-05-05 20:16 | 22.13306 | 114.64560 | 9717 ft | 270 kts | 225° |
| 2026-05-05 20:16 | 22.11961 | 114.63181 | 9596 ft | 269 kts | 225° |
| 2026-05-05 20:16 | 22.10596 | 114.61780 | 9462 ft | 268 kts | 225° |
| 2026-05-05 20:17 | 22.09252 | 114.60401 | 9329 ft | 267 kts | 225° |
| 2026-05-05 20:17 | 22.07915 | 114.59028 | 9201 ft | 267 kts | 225° |
| 2026-05-05 20:17 | 22.06565 | 114.57644 | 9082 ft | 265 kts | 225° |
| 2026-05-05 20:17 | 22.05239 | 114.56286 | 8950 ft | 264 kts | 225° |
| 2026-05-05 20:18 | 22.03905 | 114.54919 | 8816 ft | 263 kts | 225° |
| 2026-05-05 20:18 | 22.02609 | 114.53563 | 8672 ft | 259 kts | 230° |
| 2026-05-05 20:18 | 22.01701 | 114.51902 | 8554 ft | 258 kts | 248° |
| 2026-05-05 20:18 | 22.01040 | 114.50102 | 8452 ft | 263 kts | 248° |
| 2026-05-05 20:19 | 22.00347 | 114.48261 | 8303 ft | 265 kts | 248° |
| 2026-05-05 20:19 | 21.99646 | 114.46413 | 8189 ft | 266 kts | 248° |
| 2026-05-05 20:19 | 21.98952 | 114.44587 | 8064 ft | 265 kts | 248° |
| 2026-05-05 20:19 | 21.98256 | 114.42760 | 7929 ft | 261 kts | 248° |
| 2026-05-05 20:20 | 21.97565 | 114.40952 | 7801 ft | 257 kts | 248° |
| 2026-05-05 20:20 | 21.96893 | 114.39194 | 7689 ft | 254 kts | 248° |
| 2026-05-05 20:20 | 21.96216 | 114.37426 | 7551 ft | 254 kts | 248° |
| 2026-05-05 20:20 | 21.95545 | 114.35673 | 7438 ft | 257 kts | 248° |
| 2026-05-05 20:21 | 21.94855 | 114.33873 | 7303 ft | 259 kts | 248° |
| 2026-05-05 20:21 | 21.94175 | 114.32100 | 7182 ft | 259 kts | 248° |
| 2026-05-05 20:21 | 21.93483 | 114.30297 | 7061 ft | 259 kts | 248° |
| 2026-05-05 20:21 | 21.92797 | 114.28509 | 6930 ft | 259 kts | 247° |
| 2026-05-05 20:22 | 21.92111 | 114.26721 | 6806 ft | 258 kts | 248° |
| 2026-05-05 20:22 | 21.91430 | 114.24948 | 6684 ft | 258 kts | 248° |
| 2026-05-05 20:22 | 21.90741 | 114.23155 | 6556 ft | 258 kts | 247° |
| 2026-05-05 20:22 | 21.90053 | 114.21369 | 6450 ft | 257 kts | 247° |
| 2026-05-05 20:23 | 21.89642 | 114.19545 | 6287 ft | 254 kts | 270° |
| 2026-05-05 20:23 | 21.90019 | 114.17674 | 6194 ft | 259 kts | 292° |
| 2026-05-05 20:23 | 21.90560 | 114.16509 | 6112 ft | 264 kts | 297° |
| 2026-05-05 20:23 | 21.91768 | 114.14200 | 5936 ft | 266 kts | 297° |
| 2026-05-05 20:24 | 21.92377 | 114.13044 | 5840 ft | 266 kts | 297° |
| 2026-05-05 20:24 | 21.93291 | 114.11304 | 5700 ft | 264 kts | 298° |
| 2026-05-05 20:24 | 21.94183 | 114.09603 | 5576 ft | 263 kts | 298° |
| 2026-05-05 20:24 | 21.95083 | 114.07882 | 5455 ft | 261 kts | 297° |
| 2026-05-05 20:25 | 21.95964 | 114.06188 | 5326 ft | 261 kts | 297° |
| 2026-05-05 20:25 | 21.96848 | 114.04486 | 5198 ft | 261 kts | 297° |
| 2026-05-05 20:25 | 21.98026 | 114.02211 | 5037 ft | 262 kts | 296° |
| 2026-05-05 20:25 | 21.98617 | 114.01067 | 4939 ft | 262 kts | 296° |
| 2026-05-05 20:26 | 21.99509 | 113.99336 | 4833 ft | 263 kts | 297° |
| 2026-05-05 20:26 | 22.00393 | 113.97623 | 4705 ft | 264 kts | 297° |
| 2026-05-05 20:26 | 22.01292 | 113.95881 | 4560 ft | 265 kts | 296° |
| 2026-05-05 20:26 | 22.02179 | 113.94157 | 4440 ft | 265 kts | 297° |
| 2026-05-05 20:27 | 22.03072 | 113.92427 | 4301 ft | 266 kts | 296° |
| 2026-05-05 20:27 | 22.03974 | 113.90675 | 4186 ft | 265 kts | 296° |
| 2026-05-05 20:27 | 22.04868 | 113.88933 | 4064 ft | 265 kts | 297° |
| 2026-05-05 20:27 | 22.05755 | 113.87212 | 3925 ft | 265 kts | 297° |
| 2026-05-05 20:28 | 22.06653 | 113.85470 | 3811 ft | 265 kts | 298° |
| 2026-05-05 20:28 | 22.07552 | 113.83724 | 3678 ft | 266 kts | 297° |
| 2026-05-05 20:28 | 22.08443 | 113.81994 | 3553 ft | 267 kts | 297° |
| 2026-05-05 20:28 | 22.09352 | 113.80223 | 3416 ft | 268 kts | 297° |
| 2026-05-05 20:29 | 22.10256 | 113.78486 | 3320 ft | 263 kts | 301° |
| 2026-05-05 20:29 | 22.11532 | 113.77147 | 3150 ft | 251 kts | 333° |
| 2026-05-05 20:29 | 22.13054 | 113.76415 | 3022 ft | 236 kts | 337° |
| 2026-05-05 20:29 | 22.14520 | 113.75685 | 2888 ft | 225 kts | 337° |
| 2026-05-05 20:30 | 22.15890 | 113.74995 | 2785 ft | 213 kts | 338° |
| 2026-05-05 20:30 | 22.17217 | 113.74329 | 2727 ft | 209 kts | 337° |
| 2026-05-05 20:30 | 22.18542 | 113.73668 | 2696 ft | 208 kts | 337° |
| 2026-05-05 20:30 | 22.19827 | 113.73027 | 2527 ft | 200 kts | 337° |
| 2026-05-05 20:31 | 22.21115 | 113.72553 | 2402 ft | 195 kts | 2° |
| 2026-05-05 20:31 | 22.22342 | 113.72987 | 2335 ft | 184 kts | 37° |
| 2026-05-05 20:31 | 22.23421 | 113.73764 | 2287 ft | 188 kts | 37° |
| 2026-05-05 20:31 | 22.24521 | 113.74526 | 2163 ft | 191 kts | 36° |
| 2026-05-05 20:32 | 22.25643 | 113.75307 | 2057 ft | 190 kts | 38° |
| 2026-05-05 20:32 | 22.26487 | 113.76307 | 1961 ft | 179 kts | 68° |
| 2026-05-05 20:32 | 22.27007 | 113.77544 | 1883 ft | 182 kts | 68° |
| 2026-05-05 20:32 | 22.27507 | 113.78780 | 1814 ft | 179 kts | 71° |
| 2026-05-05 20:33 | 22.27941 | 113.80055 | 1729 ft | 178 kts | 73° |
| 2026-05-05 20:33 | 22.28336 | 113.81273 | 1675 ft | 170 kts | 73° |
| 2026-05-05 20:33 | 22.28726 | 113.82482 | 1443 ft | 167 kts | 72° |
| 2026-05-05 20:33 | 22.29087 | 113.83596 | 1249 ft | 149 kts | 73° |
| 2026-05-05 20:34 | 22.29420 | 113.84631 | 1053 ft | 143 kts | 73° |
| 2026-05-05 20:34 | 22.29743 | 113.85632 | 884 ft | 143 kts | 72° |
| 2026-05-05 20:34 | 22.30077 | 113.86663 | 676 ft | 143 kts | 73° |
| 2026-05-05 20:34 | 22.30399 | 113.87664 | 508 ft | 143 kts | 71° |
| 2026-05-05 20:35 | 22.30725 | 113.88666 | 301 ft | 141 kts | 72° |
| 2026-05-05 20:35 | 22.31049 | 113.89654 | 138 ft | 139 kts | 71° |
| 2026-05-05 20:35 | 22.31365 | 113.90647 | 41 ft | 135 kts | 71° |
| 2026-05-05 20:35 | 22.31638 | 113.91481 | 40 ft | 97 kts | 71° |
| 2026-05-05 20:36 | 22.31784 | 113.91944 | 40 ft | 38 kts | 76° |
| 2026-05-05 20:36 | 22.31791 | 113.92150 | 40 ft | 11 kts | 100° |
| 2026-05-05 20:36 | 22.31776 | 113.92235 | 40 ft | 12 kts | 100° |
| 2026-05-05 20:36 | 22.31762 | 113.92321 | 40 ft | 12 kts | 100° |
| 2026-05-05 20:37 | 22.31735 | 113.92404 | 40 ft | 12 kts | 127° |
| 2026-05-05 20:37 | 22.31663 | 113.92445 | 40 ft | 12 kts | 165° |
| 2026-05-05 20:37 | 22.31586 | 113.92426 | 40 ft | 10 kts | 204° |
| 2026-05-05 20:37 | 22.31540 | 113.92403 | 40 ft | 0 kts | 206° |